Time;durP1;ratioP1;P1;durP2;ratioP2;P2;SDS_P1;SDS_P2;PMS_P1;PMS_P2;Temp;Humidity;BMP_temperature;BMP_pressure;BME280_temperature;BME280_humidity;BME280_pressure;Samples;Min_cycle;Max_cycle;Signal;HPM_P1;HPM_P2
2021/04/11 00:00:35;;;;;;;6.22;4.03;;;9.20;99.90;;;;;;5047406;28;20094;-74
2021/04/11 00:03:03;;;;;;;7.68;4.20;;;9.20;99.90;;;;;;5048892;28;20045;-76
2021/04/11 00:05:34;;;;;;;6.00;3.97;;;9.20;99.90;;;;;;5049056;28;20029;-76
2021/04/11 00:08:02;;;;;;;7.57;4.35;;;9.10;99.90;;;;;;5052843;28;20479;-76
2021/04/11 00:10:31;;;;;;;8.15;4.28;;;9.10;99.90;;;;;;5047697;28;20380;-77
2021/04/11 00:12:58;;;;;;;7.43;4.28;;;9.10;99.90;;;;;;5049500;28;20036;-75
2021/04/11 00:15:24;;;;;;;5.70;4.00;;;9.10;99.90;;;;;;5049675;28;20036;-76
2021/04/11 00:17:50;;;;;;;7.70;3.90;;;9.00;99.90;;;;;;5043040;28;20025;-76
2021/04/11 00:20:16;;;;;;;6.88;3.85;;;9.10;99.90;;;;;;5051879;28;20024;-75
2021/04/11 00:22:44;;;;;;;6.97;3.72;;;9.10;99.90;;;;;;5051095;28;20025;-77
2021/04/11 00:25:12;;;;;;;6.15;3.80;;;9.10;99.90;;;;;;5049065;28;20029;-76
2021/04/11 00:27:38;;;;;;;6.55;4.18;;;9.00;99.90;;;;;;5048442;28;20060;-75
2021/04/11 00:30:05;;;;;;;8.50;4.25;;;9.00;99.90;;;;;;5060128;28;20156;-75
2021/04/11 00:32:31;;;;;;;8.95;4.50;;;9.00;99.90;;;;;;5048948;28;20389;-75
2021/04/11 00:34:56;;;;;;;7.03;3.88;;;9.00;99.90;;;;;;5046617;28;20025;-75
2021/04/11 00:37:22;;;;;;;7.18;3.90;;;9.10;99.90;;;;;;5043803;28;20026;-75
2021/04/11 00:39:47;;;;;;;7.80;3.75;;;9.10;99.90;;;;;;5050297;28;20384;-75
2021/04/11 00:42:20;;;;;;;5.57;3.33;;;9.10;99.90;;;;;;5031634;28;20029;-76
2021/04/11 00:44:46;;;;;;;10.27;5.18;;;9.20;99.90;;;;;;5047032;28;20083;-76
2021/04/11 00:47:11;;;;;;;9.07;4.05;;;9.20;99.90;;;;;;5049136;28;20107;-75
2021/04/11 00:49:48;;;;;;;8.27;4.25;;;9.10;99.90;;;;;;5047225;28;20060;-75
2021/04/11 00:52:15;;;;;;;9.38;4.55;;;9.10;99.90;;;;;;5049029;28;20024;-76
2021/04/11 00:54:42;;;;;;;7.90;4.15;;;9.10;99.90;;;;;;5048693;28;20025;-76
2021/04/11 00:57:09;;;;;;;5.85;3.55;;;9.00;99.90;;;;;;5046015;28;20469;-77
2021/04/11 00:59:35;;;;;;;7.10;3.95;;;9.00;99.90;;;;;;5049624;28;20425;-75
2021/04/11 01:02:02;;;;;;;6.00;3.40;;;9.00;99.90;;;;;;5047801;28;20110;-75
2021/04/11 01:04:28;;;;;;;5.85;3.60;;;9.00;99.90;;;;;;5048464;28;20446;-76
2021/04/11 01:06:57;;;;;;;7.18;3.45;;;9.00;99.90;;;;;;5048430;28;20107;-75
2021/04/11 01:09:36;;;;;;;7.57;3.80;;;9.00;99.90;;;;;;5047339;28;20751;-74
2021/04/11 01:12:05;;;;;;;6.65;3.55;;;9.00;99.90;;;;;;5048076;28;20064;-75
2021/04/11 01:14:32;;;;;;;5.65;2.75;;;9.00;99.90;;;;;;5044061;28;20036;-74
2021/04/11 01:16:58;;;;;;;4.53;2.80;;;9.10;99.90;;;;;;5047181;28;20075;-76
2021/04/11 01:19:44;;;;;;;5.82;3.17;;;9.20;99.90;;;;;;5048214;28;20067;-76
2021/04/11 01:22:46;;;;;;;4.43;2.90;;;9.40;99.90;;;;;;5042214;28;20029;-75
2021/04/11 01:25:18;;;;;;;3.60;2.47;;;9.60;99.90;;;;;;5043939;28;20049;-75
2021/04/11 01:27:43;;;;;;;4.75;2.53;;;9.70;99.90;;;;;;5048003;28;20131;-76
2021/04/11 01:30:18;;;;;;;5.57;2.85;;;9.80;99.90;;;;;;5049685;28;20115;-76
2021/04/11 01:32:45;;;;;;;6.30;2.85;;;9.90;99.90;;;;;;5043709;28;20037;-76
2021/04/11 01:35:15;;;;;;;5.20;3.00;;;10.00;99.90;;;;;;5047490;28;20029;-76
2021/04/11 01:37:41;;;;;;;6.90;2.60;;;10.00;99.90;;;;;;5048333;28;20318;-75
2021/04/11 01:40:09;;;;;;;5.93;2.85;;;10.10;99.90;;;;;;5046959;28;20039;-75
2021/04/11 01:42:35;;;;;;;3.72;2.72;;;10.10;99.80;;;;;;5050675;28;20047;-75
2021/04/11 01:45:00;;;;;;;5.95;2.88;;;10.10;99.80;;;;;;5047872;28;20037;-76
2021/04/11 01:47:26;;;;;;;5.32;2.45;;;10.10;99.90;;;;;;5046996;28;20160;-76
2021/04/11 01:49:52;;;;;;;8.50;3.22;;;10.10;99.90;;;;;;5046279;28;20106;-76
2021/04/11 01:52:24;;;;;;;3.50;2.28;;;10.00;99.90;;;;;;5048373;28;20532;-75
2021/04/11 01:54:50;;;;;;;4.35;2.80;;;10.00;99.90;;;;;;5045815;28;20146;-77
2021/04/11 01:57:24;;;;;;;5.22;2.90;;;9.90;99.90;;;;;;5046229;28;20486;-75
2021/04/11 01:59:50;;;;;;;5.07;3.03;;;9.90;99.90;;;;;;5047729;28;20086;-75
2021/04/11 02:02:18;;;;;;;4.43;2.70;;;9.80;99.90;;;;;;5046185;28;20477;-75
2021/04/11 02:04:45;;;;;;;5.47;3.08;;;9.70;99.90;;;;;;5048373;28;20033;-76
2021/04/11 02:07:13;;;;;;;4.97;2.72;;;9.80;99.90;;;;;;5037932;28;20021;-76
2021/04/11 02:09:42;;;;;;;7.60;3.13;;;9.70;99.90;;;;;;5048523;28;20112;-76
2021/04/11 02:12:09;;;;;;;4.57;2.42;;;9.70;99.90;;;;;;5047461;28;20047;-74
2021/04/11 02:14:39;;;;;;;5.22;2.55;;;9.60;99.90;;;;;;5046938;28;20037;-75
2021/04/11 02:17:06;;;;;;;4.97;2.60;;;9.60;99.90;;;;;;5048187;28;20064;-75
2021/04/11 02:19:31;;;;;;;5.88;2.40;;;9.70;99.90;;;;;;5059218;28;20029;-76
2021/04/11 02:22:10;;;;;;;4.32;2.33;;;9.80;99.90;;;;;;5031329;28;20027;-75
2021/04/11 02:24:43;;;;;;;5.43;2.27;;;9.80;99.90;;;;;;5050305;28;20050;-75
2021/04/11 02:27:11;;;;;;;5.93;2.70;;;9.80;99.90;;;;;;5052795;28;20025;-76
2021/04/11 02:29:37;;;;;;;5.28;2.72;;;9.80;99.90;;;;;;5053184;28;20037;-76
2021/04/11 02:32:04;;;;;;;3.63;2.20;;;9.90;99.90;;;;;;5054560;28;20025;-75
2021/04/11 02:34:31;;;;;;;6.00;2.53;;;9.90;99.90;;;;;;5052155;28;20044;-75
2021/04/11 02:37:05;;;;;;;4.63;2.20;;;9.90;99.90;;;;;;5053517;28;20044;-74
2021/04/11 02:39:34;;;;;;;4.50;2.30;;;9.90;99.90;;;;;;5051203;28;20116;-75
2021/04/11 02:42:03;;;;;;;5.75;3.50;;;9.90;99.90;;;;;;5056669;28;20039;-75
2021/04/11 02:44:34;;;;;;;3.60;2.42;;;9.90;99.90;;;;;;5050382;28;20057;-75
2021/04/11 02:47:00;;;;;;;7.20;2.40;;;9.80;99.90;;;;;;5035161;28;20399;-75
2021/04/11 02:49:25;;;;;;;4.32;2.30;;;9.90;99.90;;;;;;5052947;28;20057;-74
2021/04/11 02:51:54;;;;;;;3.90;2.20;;;9.80;99.90;;;;;;5053935;28;20040;-75
2021/04/11 02:54:21;;;;;;;4.38;2.28;;;9.80;99.90;;;;;;5050657;28;20412;-75
2021/04/11 02:56:47;;;;;;;5.45;2.50;;;9.80;99.90;;;;;;5051928;28;20040;-75
2021/04/11 02:59:15;;;;;;;6.22;2.58;;;9.80;99.90;;;;;;5053843;28;20029;-76
2021/04/11 03:01:44;;;;;;;4.72;2.38;;;9.80;99.90;;;;;;5051744;28;20887;-75
2021/04/11 03:04:15;;;;;;;3.30;2.40;;;9.80;99.90;;;;;;5051610;28;20064;-76
2021/04/11 03:06:45;;;;;;;5.65;2.55;;;9.70;99.90;;;;;;5053419;28;20033;-75
2021/04/11 03:09:20;;;;;;;3.40;1.98;;;9.80;99.90;;;;;;5054721;28;20459;-75
2021/04/11 03:11:52;;;;;;;5.43;2.00;;;9.80;99.90;;;;;;5047807;28;20029;-74
2021/04/11 03:14:20;;;;;;;4.28;2.55;;;9.80;99.90;;;;;;5052967;28;20060;-75
2021/04/11 03:16:46;;;;;;;4.72;2.47;;;9.70;99.90;;;;;;5051685;28;20073;-76
2021/04/11 03:19:16;;;;;;;3.85;2.30;;;9.80;99.90;;;;;;5049352;28;20025;-75
2021/04/11 03:21:42;;;;;;;4.32;2.33;;;9.80;99.90;;;;;;5053182;28;20052;-75
2021/04/11 03:24:08;;;;;;;4.07;2.30;;;9.80;99.90;;;;;;5058241;28;20831;-75
2021/04/11 03:26:45;;;;;;;6.57;2.30;;;9.80;99.90;;;;;;5047682;28;20029;-76
2021/04/11 03:29:37;;;;;;;5.35;2.30;;;9.80;99.90;;;;;;5048760;28;20468;-75
2021/04/11 03:32:20;;;;;;;3.35;2.17;;;9.80;99.90;;;;;;4995321;28;20037;-75
2021/04/11 03:34:48;;;;;;;3.38;2.25;;;9.90;99.90;;;;;;5049190;28;20116;-76
2021/04/11 03:37:16;;;;;;;5.28;2.70;;;9.90;99.90;;;;;;5050535;28;20028;-74
2021/04/11 03:39:41;;;;;;;3.92;2.38;;;9.90;99.90;;;;;;5050384;28;20029;-77
2021/04/11 03:42:10;;;;;;;7.20;2.30;;;9.90;99.90;;;;;;5031800;28;20041;-75
2021/04/11 03:44:36;;;;;;;4.00;2.30;;;9.90;99.90;;;;;;5048344;28;20069;-76
2021/04/11 03:47:09;;;;;;;3.90;2.45;;;9.90;99.90;;;;;;5032741;28;20476;-75
2021/04/11 03:49:43;;;;;;;4.75;2.50;;;9.90;99.90;;;;;;5048813;28;20463;-75
2021/04/11 03:52:30;;;;;;;2.92;2.10;;;9.90;99.90;;;;;;5047778;28;20024;-75
2021/04/11 03:55:00;;;;;;;5.55;2.50;;;9.90;99.90;;;;;;5049210;28;20029;-76
2021/04/11 03:57:32;;;;;;;3.22;2.00;;;9.90;99.90;;;;;;5046580;28;20107;-74
2021/04/11 04:00:12;;;;;;;5.25;2.75;;;9.90;99.90;;;;;;5050285;28;20032;-75
2021/04/11 04:02:41;;;;;;;5.55;2.40;;;9.90;99.90;;;;;;5049866;28;20408;-75
2021/04/11 04:05:10;;;;;;;3.90;2.28;;;9.90;99.90;;;;;;5048492;28;20103;-75
2021/04/11 04:07:48;;;;;;;3.25;2.30;;;9.90;99.90;;;;;;5046553;28;20091;-75
2021/04/11 04:10:17;;;;;;;4.45;2.70;;;9.80;99.90;;;;;;5049870;28;20399;-75
2021/04/11 04:13:00;;;;;;;5.20;3.07;;;9.80;99.90;;;;;;5049689;28;20029;-75
2021/04/11 04:15:34;;;;;;;4.35;2.30;;;9.80;99.90;;;;;;5048433;28;20278;-76
2021/04/11 04:18:27;;;;;;;4.13;2.13;;;9.70;99.90;;;;;;5049401;28;20139;-76
2021/04/11 04:21:17;;;;;;;4.07;2.20;;;9.70;99.90;;;;;;5049622;28;20044;-75
2021/04/11 04:24:17;;;;;;;6.85;2.70;;;9.70;99.90;;;;;;5046961;28;20058;-75
2021/04/11 04:26:51;;;;;;;5.32;2.80;;;9.70;99.90;;;;;;5048988;28;20044;-76
2021/04/11 04:29:36;;;;;;;5.88;2.70;;;9.70;99.90;;;;;;5052226;28;20020;-75
2021/04/11 04:32:19;;;;;;;6.07;2.60;;;9.60;99.90;;;;;;5041752;28;20402;-75
2021/04/11 04:34:47;;;;;;;6.65;2.63;;;9.50;99.90;;;;;;5050382;28;20036;-76
2021/04/11 04:37:37;;;;;;;4.53;2.47;;;9.50;99.90;;;;;;5049722;28;20036;-75
2021/04/11 04:40:26;;;;;;;3.95;2.45;;;9.50;99.90;;;;;;5046025;28;20065;-75
2021/04/11 04:43:07;;;;;;;7.22;2.88;;;9.50;99.90;;;;;;5049889;28;20036;-75
2021/04/11 04:45:54;;;;;;;4.45;2.80;;;9.40;99.90;;;;;;5042670;28;20041;-75
2021/04/11 04:48:28;;;;;;;4.20;2.58;;;9.40;99.90;;;;;;5047772;28;20041;-76
2021/04/11 04:51:00;;;;;;;6.80;2.63;;;9.40;99.90;;;;;;5048839;28;20032;-75
2021/04/11 04:53:37;;;;;;;3.90;2.72;;;9.40;99.90;;;;;;5043550;28;20024;-76
2021/04/11 04:56:07;;;;;;;6.38;2.63;;;9.40;99.90;;;;;;5045667;28;20025;-75
2021/04/11 04:58:40;;;;;;;5.55;2.72;;;9.40;99.90;;;;;;5045310;28;20029;-75
2021/04/11 05:01:20;;;;;;;5.30;3.03;;;9.40;99.90;;;;;;5030488;28;20033;-75
2021/04/11 05:03:48;;;;;;;8.10;3.17;;;9.40;99.90;;;;;;5047130;28;20536;-75
2021/04/11 05:06:18;;;;;;;5.25;3.03;;;9.40;99.90;;;;;;5047721;28;20017;-75
2021/04/11 05:08:52;;;;;;;4.38;2.65;;;9.40;99.90;;;;;;5046673;28;20599;-75
2021/04/11 05:11:34;;;;;;;5.78;2.92;;;9.30;99.90;;;;;;5045109;28;20088;-74
2021/04/11 05:14:07;;;;;;;3.88;2.40;;;9.40;99.90;;;;;;5045169;28;20029;-76
2021/04/11 05:16:42;;;;;;;4.65;2.53;;;9.40;99.90;;;;;;5048556;28;20032;-75
2021/04/11 05:19:14;;;;;;;5.63;2.45;;;9.40;99.90;;;;;;5045342;28;20032;-75
2021/04/11 05:21:49;;;;;;;7.13;2.88;;;9.50;99.90;;;;;;5049110;28;20025;-76
2021/04/11 05:24:21;;;;;;;5.07;2.75;;;9.50;99.90;;;;;;5029963;28;20053;-75
2021/04/11 05:26:52;;;;;;;4.38;2.70;;;9.50;99.90;;;;;;5047389;28;20077;-76
2021/04/11 05:29:23;;;;;;;4.10;2.42;;;9.60;99.90;;;;;;5044717;28;20388;-75
2021/04/11 05:31:51;;;;;;;6.45;2.60;;;9.70;99.90;;;;;;5045218;28;20031;-75
2021/04/11 05:34:19;;;;;;;5.18;2.50;;;9.70;99.90;;;;;;5051534;28;20040;-76
2021/04/11 05:37:21;;;;;;;4.10;2.85;;;9.80;99.90;;;;;;5043968;28;20147;-76
2021/04/11 05:39:51;;;;;;;3.53;2.30;;;9.90;99.90;;;;;;5047645;28;20033;-75
2021/04/11 05:42:41;;;;;;;4.10;2.42;;;10.00;99.90;;;;;;5047530;28;20057;-75
2021/04/11 05:45:20;;;;;;;5.88;2.55;;;10.20;99.90;;;;;;5043455;28;20514;-76
2021/04/11 05:48:06;;;;;;;4.77;2.93;;;10.30;99.90;;;;;;5045532;28;20430;-75
2021/04/11 05:51:07;;;;;;;5.10;2.60;;;10.40;99.90;;;;;;5047693;28;20124;-75
2021/04/11 05:53:49;;;;;;;4.30;2.60;;;10.70;99.90;;;;;;5047319;28;20025;-76
2021/04/11 05:56:22;;;;;;;5.25;2.30;;;11.20;99.90;;;;;;5047424;28;20029;-74
2021/04/11 05:58:58;;;;;;;3.95;2.30;;;11.60;99.90;;;;;;5044006;28;20029;-74
2021/04/11 06:01:29;;;;;;;3.72;2.40;;;12.00;99.90;;;;;;5045864;28;20020;-76
2021/04/11 06:04:05;;;;;;;3.40;2.20;;;12.30;99.90;;;;;;5038769;28;20045;-76
2021/04/11 06:06:41;;;;;;;5.70;2.28;;;12.20;99.50;;;;;;5043564;28;20029;-77
2021/04/11 06:09:14;;;;;;;4.88;2.40;;;12.20;99.40;;;;;;5045955;28;20052;-77
2021/04/11 06:12:00;;;;;;;5.70;2.55;;;12.20;99.30;;;;;;5023408;28;20033;-75
2021/04/11 06:14:49;;;;;;;6.03;2.60;;;12.30;99.90;;;;;;5047577;28;20028;-75
2021/04/11 06:17:15;;;;;;;5.68;2.78;;;12.50;99.50;;;;;;5043084;28;20064;-76
2021/04/11 06:19:46;;;;;;;6.90;3.20;;;12.70;99.80;;;;;;5047101;28;20112;-75
2021/04/11 06:22:28;;;;;;;4.20;2.90;;;12.80;99.70;;;;;;5025325;28;20067;-77
2021/04/11 06:25:04;;;;;;;4.60;2.70;;;12.80;99.60;;;;;;5042098;28;20040;-76
2021/04/11 06:27:33;;;;;;;5.80;2.70;;;13.00;99.50;;;;;;5042292;28;20035;-75
2021/04/11 06:30:24;;;;;;;4.07;2.57;;;13.20;99.00;;;;;;5046159;28;20025;-76
2021/04/11 06:33:00;;;;;;;8.45;3.80;;;13.40;98.90;;;;;;4973617;28;20128;-75
2021/04/11 06:35:34;;;;;;;6.65;3.20;;;13.40;99.30;;;;;;4966923;28;20842;-75
2021/04/11 06:38:02;;;;;;;7.63;4.15;;;13.60;99.50;;;;;;4966284;28;20051;-76
2021/04/11 06:40:59;;;;;;;4.70;3.05;;;13.50;99.40;;;;;;4985011;28;20070;-76
2021/04/11 06:43:36;;;;;;;5.35;3.40;;;13.60;98.70;;;;;;4966091;28;20051;-75
2021/04/11 06:46:34;;;;;;;7.18;3.00;;;13.50;99.10;;;;;;4971105;28;20035;-76
2021/04/11 06:49:12;;;;;;;4.45;2.90;;;13.40;99.30;;;;;;4964762;28;20696;-75
2021/04/11 06:51:57;;;;;;;3.88;3.03;;;13.30;99.80;;;;;;4972299;28;20108;-75
2021/04/11 06:54:50;;;;;;;6.72;3.78;;;13.30;99.60;;;;;;4965521;28;20053;-75
2021/04/11 06:57:43;;;;;;;7.30;2.70;;;13.20;99.60;;;;;;4964191;28;20364;-76
2021/04/11 07:00:44;;;;;;;7.68;3.00;;;13.30;99.70;;;;;;4926702;28;20039;-76
2021/04/11 07:03:26;;;;;;;4.40;3.03;;;13.30;99.40;;;;;;4964832;28;20030;-76
2021/04/11 07:06:33;;;;;;;6.45;3.08;;;13.40;99.10;;;;;;4966621;28;20071;-76
2021/04/11 07:09:11;;;;;;;5.95;3.00;;;13.30;99.00;;;;;;4900102;29;20118;-75
2021/04/11 07:12:05;;;;;;;5.55;2.80;;;13.40;99.20;;;;;;4944105;28;20073;-77
2021/04/11 07:15:02;;;;;;;5.70;2.78;;;13.50;99.30;;;;;;4952621;28;20452;-76
2021/04/11 07:17:36;;;;;;;4.68;2.90;;;13.50;99.00;;;;;;4950523;28;20027;-78
2021/04/11 07:20:20;;;;;;;5.32;3.00;;;13.60;99.10;;;;;;4950211;29;20043;-78
2021/04/11 07:22:51;;;;;;;5.22;2.78;;;13.70;98.80;;;;;;4953662;28;20035;-79
2021/04/11 07:25:43;;;;;;;5.13;2.47;;;13.80;99.00;;;;;;4947111;28;20039;-77
2021/04/11 07:28:41;;;;;;;5.38;2.67;;;13.90;98.90;;;;;;4938113;29;20713;-79
2021/04/11 07:31:18;;;;;;;4.97;2.55;;;14.00;99.00;;;;;;4950066;28;20126;-76
2021/04/11 07:34:12;;;;;;;3.72;2.13;;;14.10;98.60;;;;;;4944569;28;20064;-79
2021/04/11 07:36:40;;;;;;;6.88;2.30;;;14.20;98.40;;;;;;4955140;29;20037;-90
2021/04/11 07:39:17;;;;;;;3.75;1.90;;;14.30;99.00;;;;;;4953111;29;20523;-92
2021/04/11 07:41:53;;;;;;;4.10;2.38;;;14.50;98.00;;;;;;4964890;28;20118;-91
2021/04/11 07:44:46;;;;;;;3.83;2.15;;;14.60;98.20;;;;;;4958411;28;20040;-89
2021/04/11 07:47:52;;;;;;;4.55;1.77;;;14.90;98.20;;;;;;5038141;28;20111;-89
2021/04/11 07:50:30;;;;;;;3.05;1.67;;;15.10;97.20;;;;;;4994061;28;20038;-87
2021/04/11 07:53:44;;;;;;;2.83;1.70;;;15.40;96.60;;;;;;4998253;28;20038;-88
2021/04/11 07:56:37;;;;;;;2.30;1.90;;;15.40;96.20;;;;;;4879011;29;20521;-89
2021/04/11 07:59:28;;;;;;;2.40;1.70;;;15.50;95.70;;;;;;4873155;29;20049;-88
2021/04/11 08:02:31;;;;;;;4.68;2.00;;;15.40;95.60;;;;;;4876884;29;20041;-82
2021/04/11 08:05:30;;;;;;;3.15;1.80;;;15.40;94.80;;;;;;4873134;29;20611;-79
2021/04/11 08:07:59;;;;;;;2.13;1.52;;;15.50;95.10;;;;;;4874357;29;20036;-82
2021/04/11 08:10:42;;;;;;;3.72;1.60;;;15.50;95.40;;;;;;4874411;29;20049;-79
2021/04/11 08:13:38;;;;;;;4.82;1.90;;;15.90;95.70;;;;;;4874263;29;20041;-85
2021/04/11 08:16:17;;;;;;;2.97;1.63;;;16.30;95.40;;;;;;4873749;29;20053;-87
2021/04/11 08:19:15;;;;;;;2.03;1.40;;;16.50;94.40;;;;;;4883218;29;20029;-89
2021/04/11 08:22:06;;;;;;;2.92;1.50;;;16.60;94.30;;;;;;4876806;29;20041;-88
2021/04/11 08:25:08;;;;;;;2.72;1.52;;;16.80;94.10;;;;;;4877671;29;20053;-84
2021/04/11 08:28:10;;;;;;;4.70;1.50;;;16.90;93.90;;;;;;4831316;29;20053;-90
2021/04/11 08:30:48;;;;;;;4.32;1.52;;;16.80;93.30;;;;;;4893796;29;20047;-87
2021/04/11 08:33:37;;;;;;;4.85;1.25;;;16.80;93.10;;;;;;4923017;29;20127;-89
2021/04/11 08:36:39;;;;;;;4.85;1.48;;;16.90;93.70;;;;;;4920512;29;20047;-86
2021/04/11 08:39:35;;;;;;;2.05;1.10;;;16.90;93.20;;;;;;4932839;29;20364;-91
2021/04/11 08:42:24;;;;;;;2.22;1.20;;;16.90;92.70;;;;;;4909372;29;20507;-89
2021/04/11 08:45:23;;;;;;;2.13;1.10;;;16.80;93.30;;;;;;4902521;29;20068;-91
2021/04/11 08:48:23;;;;;;;2.58;1.02;;;16.70;93.20;;;;;;4922599;29;20020;-91
2021/04/11 08:50:56;;;;;;;5.60;1.55;;;16.70;93.30;;;;;;4918423;29;20048;-86
2021/04/11 08:53:34;;;;;;;3.42;1.20;;;16.60;93.60;;;;;;4929122;29;20143;-87
2021/04/11 08:56:12;;;;;;;1.88;1.10;;;16.70;93.40;;;;;;4935782;29;20090;-90
2021/04/11 08:59:01;;;;;;;6.23;1.37;;;16.60;93.20;;;;;;4933242;29;20048;-90
2021/04/11 09:01:32;;;;;;;3.47;1.05;;;16.80;93.50;;;;;;4930511;29;20115;-91
2021/04/11 09:04:19;;;;;;;3.17;1.08;;;16.80;93.30;;;;;;4960935;28;20053;-89
2021/04/11 09:07:03;;;;;;;2.67;1.27;;;16.80;93.70;;;;;;5006504;28;20456;-89
2021/04/11 09:09:44;;;;;;;1.73;1.15;;;16.60;94.00;;;;;;5015175;28;20033;-90
2021/04/11 09:12:26;;;;;;;6.18;1.33;;;16.80;93.70;;;;;;5008467;28;20033;-86
2021/04/11 09:15:32;;;;;;;1.67;1.10;;;16.90;94.00;;;;;;5014176;28;20025;-92
2021/04/11 09:18:24;;;;;;;2.22;1.10;;;17.10;93.70;;;;;;4993050;28;20106;-88
2021/04/11 09:21:21;;;;;;;2.33;1.20;;;17.10;93.80;;;;;;4986576;28;20074;-88
2021/04/11 09:24:16;;;;;;;2.50;1.20;;;17.00;92.90;;;;;;4990964;28;20061;-90
2021/04/11 09:26:54;;;;;;;2.85;1.10;;;17.10;93.70;;;;;;4993941;28;20039;-92
2021/04/11 09:29:38;;;;;;;3.17;1.10;;;17.10;93.00;;;;;;4994916;28;20031;-90
2021/04/11 09:32:22;;;;;;;4.05;1.15;;;17.10;92.90;;;;;;4994793;28;20043;-88
2021/04/11 09:35:00;;;;;;;2.63;0.90;;;17.40;94.00;;;;;;4993188;28;20123;-88
2021/04/11 09:37:52;;;;;;;1.85;1.02;;;17.30;92.80;;;;;;4992120;28;20761;-87
2021/04/11 09:40:45;;;;;;;2.90;0.90;;;16.90;93.20;;;;;;4976766;28;20041;-86
2021/04/11 09:43:29;;;;;;;3.63;0.90;;;16.80;93.20;;;;;;4990300;28;20022;-85
2021/04/11 09:46:03;;;;;;;2.38;0.90;;;17.00;93.70;;;;;;4991537;28;20065;-87
2021/04/11 09:48:45;;;;;;;2.30;1.05;;;16.90;93.00;;;;;;4994843;28;20046;-86
2021/04/11 09:51:19;;;;;;;2.65;1.10;;;17.00;93.80;;;;;;4992516;28;20041;-88
2021/04/11 09:54:03;;;;;;;2.70;1.05;;;17.10;93.90;;;;;;5022405;28;20064;-82
2021/04/11 09:56:49;;;;;;;1.15;0.90;;;17.10;93.10;;;;;;5009082;28;20124;-85
2021/04/11 09:59:43;;;;;;;1.75;1.00;;;17.20;92.90;;;;;;5011904;28;20797;-91
2021/04/11 10:02:30;;;;;;;1.55;0.80;;;17.30;92.90;;;;;;5012378;28;20033;-89
2021/04/11 10:05:28;;;;;;;3.38;1.10;;;17.50;92.90;;;;;;5011907;28;20045;-86
2021/04/11 10:08:34;;;;;;;0.88;0.77;;;17.50;92.50;;;;;;5007839;28;20104;-87
2021/04/11 10:11:29;;;;;;;1.20;0.90;;;17.60;92.90;;;;;;5007602;28;20034;-85
2021/04/11 10:14:17;;;;;;;1.20;0.90;;;17.70;93.20;;;;;;5010011;28;20560;-85
2021/04/11 10:16:54;;;;;;;6.55;0.90;;;17.90;92.90;;;;;;5011377;28;20072;-84
2021/04/11 10:19:39;;;;;;;1.50;0.80;;;18.00;92.60;;;;;;5009804;28;20072;-84
2021/04/11 10:22:17;;;;;;;1.20;0.88;;;17.90;92.20;;;;;;5007051;28;20732;-85
2021/04/11 10:25:05;;;;;;;1.40;0.70;;;17.90;91.90;;;;;;5009921;28;20038;-82
2021/04/11 10:27:57;;;;;;;3.08;0.80;;;17.90;91.80;;;;;;5000725;28;20030;-80
2021/04/11 10:30:23;;;;;;;1.00;0.90;;;18.10;92.50;;;;;;5001084;28;20041;-84
2021/04/11 10:33:12;;;;;;;1.55;0.90;;;18.50;91.80;;;;;;4999338;28;20038;-84
2021/04/11 10:35:47;;;;;;;2.83;1.08;;;18.70;91.90;;;;;;5003992;28;20033;-82
2021/04/11 10:38:19;;;;;;;1.60;0.93;;;18.80;91.40;;;;;;5004065;28;20065;-86
2021/04/11 10:40:45;;;;;;;1.33;1.00;;;18.70;92.00;;;;;;5008584;28;20480;-85
2021/04/11 10:43:48;;;;;;;2.30;0.90;;;18.70;91.50;;;;;;5005822;28;20022;-82
2021/04/11 10:46:30;;;;;;;0.88;0.65;;;18.70;91.00;;;;;;5005225;28;20121;-84
2021/04/11 10:49:41;;;;;;;1.65;0.82;;;18.60;90.80;;;;;;5025672;28;20531;-82
2021/04/11 10:52:24;;;;;;;1.17;0.80;;;18.60;91.00;;;;;;5048353;28;20032;-84
2021/04/11 10:54:56;;;;;;;1.17;0.80;;;18.30;91.10;;;;;;5056938;28;20019;-81
2021/04/11 10:57:51;;;;;;;1.35;0.80;;;18.50;91.10;;;;;;5065528;28;20037;-81
2021/04/11 11:00:25;;;;;;;2.17;0.90;;;18.90;91.80;;;;;;5034054;28;20048;-90
2021/04/11 11:03:26;;;;;;;1.20;0.88;;;19.30;91.10;;;;;;5066710;28;20029;-88
2021/04/11 11:06:13;;;;;;;1.70;1.00;;;19.20;90.70;;;;;;5055581;28;20049;-83
2021/04/11 11:08:47;;;;;;;2.05;1.00;;;19.20;90.60;;;;;;5054491;28;20029;-87
2021/04/11 11:11:30;;;;;;;5.65;1.02;;;19.10;91.00;;;;;;5058293;28;20033;-88
2021/04/11 11:14:17;;;;;;;1.98;1.10;;;18.90;91.60;;;;;;5060130;28;20104;-89
2021/04/11 11:17:08;;;;;;;1.52;0.90;;;18.80;91.60;;;;;;5057178;28;20044;-83
2021/04/11 11:19:58;;;;;;;1.52;0.90;;;18.80;91.50;;;;;;5051470;28;20064;-82
2021/04/11 11:22:55;;;;;;;1.75;0.88;;;18.80;91.60;;;;;;5042610;28;20025;-81
2021/04/11 11:25:59;;;;;;;2.13;0.90;;;19.00;91.60;;;;;;5052248;28;20120;-83
2021/04/11 11:28:45;;;;;;;1.77;1.00;;;19.20;91.20;;;;;;5050057;28;20039;-82
2021/04/11 11:31:26;;;;;;;2.80;0.80;;;19.40;91.50;;;;;;5054416;28;20025;-79
2021/04/11 11:34:17;;;;;;;4.68;1.00;;;19.40;91.10;;;;;;5065629;28;20021;-82
2021/04/11 11:37:19;;;;;;;3.05;1.02;;;19.60;91.60;;;;;;5060350;28;20033;-89
2021/04/11 11:40:00;;;;;;;1.33;0.90;;;19.60;91.20;;;;;;5043519;28;20116;-88
2021/04/11 11:42:55;;;;;;;1.20;0.80;;;19.60;91.10;;;;;;5054510;28;20032;-86
2021/04/11 11:45:37;;;;;;;2.58;1.05;;;19.40;90.70;;;;;;5068464;28;20044;-90
2021/04/11 11:48:50;;;;;;;2.17;0.85;;;19.50;91.10;;;;;;5068211;28;20009;-88
2021/04/11 11:51:35;;;;;;;3.00;0.90;;;19.30;91.30;;;;;;5008652;28;20069;-88
2021/04/11 11:54:23;;;;;;;1.50;0.80;;;19.40;90.90;;;;;;5016202;28;20038;-83
2021/04/11 11:57:22;;;;;;;1.65;0.80;;;19.40;90.40;;;;;;5002677;28;20023;-91
2021/04/11 12:00:02;;;;;;;1.52;0.93;;;19.30;90.40;;;;;;5012390;28;20021;-88
2021/04/11 12:03:26;;;;;;;5.20;1.80;;;19.00;90.20;;;;;;5003329;28;20046;-87
2021/04/11 12:06:02;;;;;;;4.03;1.90;;;19.10;90.90;;;;;;4930470;29;20066;-83
2021/04/11 12:09:16;;;;;;;5.28;2.28;;;19.10;90.80;;;;;;4920568;29;20138;-91
2021/04/11 12:11:51;;;;;;;3.80;1.30;;;19.20;91.00;;;;;;4853864;29;20046;-88
2021/04/11 12:14:31;;;;;;;1.23;1.10;;;19.10;90.90;;;;;;4841325;29;20486;-82
2021/04/11 12:17:15;;;;;;;1.73;0.98;;;19.00;90.90;;;;;;4844352;29;20080;-89
2021/04/11 12:20:08;;;;;;;0.93;0.63;;;19.10;91.20;;;;;;4844426;29;20187;-89
2021/04/11 12:22:57;;;;;;;3.60;1.25;;;19.00;90.70;;;;;;4846716;29;20418;-90
2021/04/11 12:25:27;;;;;;;1.90;1.10;;;18.90;91.20;;;;;;4838850;29;20045;-92
2021/04/11 12:27:53;;;;;;;8.95;1.50;;;18.90;91.10;;;;;;4873489;29;20941;-91
2021/04/11 12:30:34;;;;;;;1.90;0.90;;;18.80;90.80;;;;;;4872149;29;20036;-88
2021/04/11 12:33:06;;;;;;;1.98;1.10;;;18.80;90.40;;;;;;4888006;29;20040;-87
2021/04/11 12:35:50;;;;;;;0.75;0.75;;;18.90;90.40;;;;;;4884007;29;20041;-89
2021/04/11 12:38:30;;;;;;;2.20;0.70;;;18.90;90.60;;;;;;4882819;29;20032;-91
2021/04/11 12:41:16;;;;;;;5.47;2.15;;;19.00;90.40;;;;;;4967662;28;20046;-88
2021/04/11 12:44:14;;;;;;;3.17;1.15;;;19.20;90.20;;;;;;4967165;28;20051;-90
2021/04/11 12:46:48;;;;;;;1.08;0.70;;;19.40;90.30;;;;;;4955321;28;20390;-90
2021/04/11 12:49:16;;;;;;;2.70;0.65;;;19.40;90.20;;;;;;5048901;28;20107;-89
2021/04/11 12:52:02;;;;;;;1.42;0.45;;;19.50;89.20;;;;;;5053563;28;20060;-87
2021/04/11 12:54:36;;;;;;;3.05;0.68;;;19.50;88.40;;;;;;5040459;28;20044;-90
2021/04/11 12:57:06;;;;;;;2.92;0.70;;;19.50;89.20;;;;;;5049801;28;20055;-89
2021/04/11 13:00:00;;;;;;;2.80;0.90;;;19.60;89.30;;;;;;5071707;28;20024;-86
2021/04/11 13:02:56;;;;;;;1.92;0.68;;;19.30;88.80;;;;;;5056803;28;20052;-89
2021/04/11 13:05:36;;;;;;;4.13;0.80;;;19.20;88.70;;;;;;5055685;28;20034;-82
2021/04/11 13:08:06;;;;;;;2.40;0.80;;;19.10;89.20;;;;;;5061421;28;20052;-87
2021/04/11 13:10:55;;;;;;;2.00;0.70;;;19.30;89.70;;;;;;5055864;28;20056;-88
2021/04/11 13:13:34;;;;;;;3.00;1.70;;;19.50;89.20;;;;;;5038086;28;20121;-91
2021/04/11 13:16:23;;;;;;;3.17;0.73;;;19.60;89.10;;;;;;5050270;28;20029;-86
2021/04/11 13:18:49;;;;;;;2.67;0.90;;;19.70;88.90;;;;;;5051058;28;20044;-85
2021/04/11 13:21:29;;;;;;;1.67;0.70;;;19.60;89.00;;;;;;5048306;28;20279;-86
2021/04/11 13:23:58;;;;;;;1.23;0.70;;;19.60;89.70;;;;;;5034397;28;20045;-87
2021/04/11 13:26:43;;;;;;;4.40;1.10;;;19.80;89.90;;;;;;5058511;28;20025;-88
2021/04/11 13:29:14;;;;;;;1.42;0.52;;;19.70;88.10;;;;;;5031776;28;20838;-83
2021/04/11 13:32:09;;;;;;;3.22;0.95;;;19.60;87.80;;;;;;5048077;28;20102;-87
2021/04/11 13:34:52;;;;;;;1.25;0.60;;;19.50;88.60;;;;;;5050628;28;20037;-89
2021/04/11 13:37:17;;;;;;;1.58;0.57;;;19.60;86.90;;;;;;5054739;28;20067;-85
2021/04/11 13:39:49;;;;;;;1.10;0.70;;;19.50;88.60;;;;;;5050629;28;20037;-84
2021/04/11 13:42:23;;;;;;;1.50;0.80;;;19.50;86.80;;;;;;5047342;28;20029;-84
2021/04/11 13:45:07;;;;;;;8.20;0.90;;;19.40;87.80;;;;;;5050875;28;20070;-83
2021/04/11 13:48:10;;;;;;;1.55;0.70;;;19.60;88.30;;;;;;5047220;28;20033;-83
2021/04/11 13:50:41;;;;;;;1.52;0.90;;;19.60;85.40;;;;;;5054346;28;20033;-85
2021/04/11 13:53:33;;;;;;;1.85;0.70;;;19.60;86.00;;;;;;5051008;28;20484;-86